sensor_id;sensor_type;location;lat;lon;timestamp;temperature;humidity
30069;DHT22;16894;49.456;10.644;2023-02-15T00:00:16;-0.10;99.90
30069;DHT22;16894;49.456;10.644;2023-02-15T00:02:42;-0.10;99.90
30069;DHT22;16894;49.456;10.644;2023-02-15T00:05:08;-0.20;99.90
30069;DHT22;16894;49.456;10.644;2023-02-15T00:07:34;-0.10;99.90
30069;DHT22;16894;49.456;10.644;2023-02-15T00:09:59;-0.20;99.90
30069;DHT22;16894;49.456;10.644;2023-02-15T00:12:25;-0.20;99.90
30069;DHT22;16894;49.456;10.644;2023-02-15T00:14:51;-0.20;99.90
30069;DHT22;16894;49.456;10.644;2023-02-15T00:17:16;-0.20;99.90
30069;DHT22;16894;49.456;10.644;2023-02-15T00:19:42;-0.20;99.90
30069;DHT22;16894;49.456;10.644;2023-02-15T00:22:08;-0.20;99.90
30069;DHT22;16894;49.456;10.644;2023-02-15T00:24:34;-0.30;99.90
30069;DHT22;16894;49.456;10.644;2023-02-15T00:27:00;-0.20;99.90
30069;DHT22;16894;49.456;10.644;2023-02-15T00:29:26;-0.20;99.90
30069;DHT22;16894;49.456;10.644;2023-02-15T00:31:52;-0.30;99.90
30069;DHT22;16894;49.456;10.644;2023-02-15T00:34:25;-0.30;99.90
30069;DHT22;16894;49.456;10.644;2023-02-15T00:36:52;-0.30;99.90
30069;DHT22;16894;49.456;10.644;2023-02-15T00:39:18;-0.20;99.90
30069;DHT22;16894;49.456;10.644;2023-02-15T00:41:44;-0.30;99.90
30069;DHT22;16894;49.456;10.644;2023-02-15T00:44:10;-0.20;99.90
30069;DHT22;16894;49.456;10.644;2023-02-15T00:46:35;-0.20;99.90
30069;DHT22;16894;49.456;10.644;2023-02-15T00:49:02;-0.20;99.90
30069;DHT22;16894;49.456;10.644;2023-02-15T00:51:28;-0.20;99.90
30069;DHT22;16894;49.456;10.644;2023-02-15T00:53:53;-0.20;99.90
30069;DHT22;16894;49.456;10.644;2023-02-15T00:56:19;-0.20;99.90
30069;DHT22;16894;49.456;10.644;2023-02-15T00:58:45;-0.20;99.90
30069;DHT22;16894;49.456;10.644;2023-02-15T01:01:14;-0.20;99.90
30069;DHT22;16894;49.456;10.644;2023-02-15T01:03:40;-0.20;99.90
30069;DHT22;16894;49.456;10.644;2023-02-15T01:06:07;-0.30;99.90
30069;DHT22;16894;49.456;10.644;2023-02-15T01:08:33;-0.30;99.90
30069;DHT22;16894;49.456;10.644;2023-02-15T01:11:04;-0.30;99.90
30069;DHT22;16894;49.456;10.644;2023-02-15T01:13:31;-0.30;99.90
30069;DHT22;16894;49.456;10.644;2023-02-15T01:15:56;-0.30;99.90
30069;DHT22;16894;49.456;10.644;2023-02-15T01:18:22;-0.30;99.90
30069;DHT22;16894;49.456;10.644;2023-02-15T01:20:48;-0.40;99.90
30069;DHT22;16894;49.456;10.644;2023-02-15T01:23:14;-0.40;99.90
30069;DHT22;16894;49.456;10.644;2023-02-15T01:25:40;-0.50;99.90
30069;DHT22;16894;49.456;10.644;2023-02-15T01:28:05;-0.60;99.90
30069;DHT22;16894;49.456;10.644;2023-02-15T01:30:32;-0.60;99.90
30069;DHT22;16894;49.456;10.644;2023-02-15T01:32:58;-0.70;99.90
30069;DHT22;16894;49.456;10.644;2023-02-15T01:35:24;-0.60;99.90
30069;DHT22;16894;49.456;10.644;2023-02-15T01:37:49;-0.60;99.90
30069;DHT22;16894;49.456;10.644;2023-02-15T01:40:16;-0.70;99.90
30069;DHT22;16894;49.456;10.644;2023-02-15T01:42:43;-0.70;99.90
30069;DHT22;16894;49.456;10.644;2023-02-15T01:45:30;-0.70;99.90
30069;DHT22;16894;49.456;10.644;2023-02-15T01:48:04;-0.80;99.90
30069;DHT22;16894;49.456;10.644;2023-02-15T01:53:41;-0.70;99.90
30069;DHT22;16894;49.456;10.644;2023-02-15T01:56:30;-0.70;99.90
30069;DHT22;16894;49.456;10.644;2023-02-15T01:59:01;-0.60;99.90
30069;DHT22;16894;49.456;10.644;2023-02-15T02:01:28;-0.70;99.90
30069;DHT22;16894;49.456;10.644;2023-02-15T02:04:15;-0.70;99.90
30069;DHT22;16894;49.456;10.644;2023-02-15T02:06:45;-0.70;99.90
30069;DHT22;16894;49.456;10.644;2023-02-15T02:09:11;-0.60;99.90
30069;DHT22;16894;49.456;10.644;2023-02-15T02:11:38;-0.60;99.90
30069;DHT22;16894;49.456;10.644;2023-02-15T02:14:04;-0.60;99.90
30069;DHT22;16894;49.456;10.644;2023-02-15T02:27:41;-0.70;99.90
30069;DHT22;16894;49.456;10.644;2023-02-15T02:36:06;-0.70;99.90
30069;DHT22;16894;49.456;10.644;2023-02-15T02:38:52;-0.70;99.90
30069;DHT22;16894;49.456;10.644;2023-02-15T02:44:19;-0.80;99.90
30069;DHT22;16894;49.456;10.644;2023-02-15T02:46:58;-0.70;99.90
30069;DHT22;16894;49.456;10.644;2023-02-15T02:49:38;-0.70;99.90
30069;DHT22;16894;49.456;10.644;2023-02-15T02:52:07;-0.70;99.90
30069;DHT22;16894;49.456;10.644;2023-02-15T02:54:51;-0.80;99.90
30069;DHT22;16894;49.456;10.644;2023-02-15T02:57:18;-0.70;99.90
30069;DHT22;16894;49.456;10.644;2023-02-15T02:59:46;-0.70;99.90
30069;DHT22;16894;49.456;10.644;2023-02-15T03:02:36;-0.70;99.90
30069;DHT22;16894;49.456;10.644;2023-02-15T03:05:06;-0.70;99.90
30069;DHT22;16894;49.456;10.644;2023-02-15T03:07:34;-0.70;99.90
30069;DHT22;16894;49.456;10.644;2023-02-15T03:10:03;-0.70;99.90
30069;DHT22;16894;49.456;10.644;2023-02-15T03:12:36;-0.70;99.90
30069;DHT22;16894;49.456;10.644;2023-02-15T03:15:19;-0.70;99.90
30069;DHT22;16894;49.456;10.644;2023-02-15T03:17:49;-0.80;99.90
30069;DHT22;16894;49.456;10.644;2023-02-15T03:20:21;-0.80;99.90
30069;DHT22;16894;49.456;10.644;2023-02-15T03:23:12;-0.80;99.90
30069;DHT22;16894;49.456;10.644;2023-02-15T03:25:46;-0.70;99.90
30069;DHT22;16894;49.456;10.644;2023-02-15T03:28:18;-0.80;99.90
30069;DHT22;16894;49.456;10.644;2023-02-15T03:30:47;-0.70;99.90
30069;DHT22;16894;49.456;10.644;2023-02-15T03:33:15;-0.60;99.90
30069;DHT22;16894;49.456;10.644;2023-02-15T03:35:50;-0.80;99.90
30069;DHT22;16894;49.456;10.644;2023-02-15T03:38:22;-0.60;99.90
30069;DHT22;16894;49.456;10.644;2023-02-15T03:40:53;-0.70;99.90
30069;DHT22;16894;49.456;10.644;2023-02-15T03:43:55;-0.80;99.90
30069;DHT22;16894;49.456;10.644;2023-02-15T03:46:33;-0.90;99.90
30069;DHT22;16894;49.456;10.644;2023-02-15T03:49:05;-0.90;99.90
30069;DHT22;16894;49.456;10.644;2023-02-15T03:51:35;-0.80;99.90
30069;DHT22;16894;49.456;10.644;2023-02-15T03:54:20;-0.90;99.90
30069;DHT22;16894;49.456;10.644;2023-02-15T03:57:08;-0.80;99.90
30069;DHT22;16894;49.456;10.644;2023-02-15T03:59:53;-0.90;99.90
30069;DHT22;16894;49.456;10.644;2023-02-15T04:02:57;-0.80;99.90
30069;DHT22;16894;49.456;10.644;2023-02-15T04:05:24;-0.80;99.90
30069;DHT22;16894;49.456;10.644;2023-02-15T04:07:50;-0.80;99.90
30069;DHT22;16894;49.456;10.644;2023-02-15T04:10:16;-0.80;99.90
30069;DHT22;16894;49.456;10.644;2023-02-15T04:13:00;-0.90;99.90
30069;DHT22;16894;49.456;10.644;2023-02-15T04:15:25;-0.90;99.90
30069;DHT22;16894;49.456;10.644;2023-02-15T04:18:10;-0.90;99.90
30069;DHT22;16894;49.456;10.644;2023-02-15T04:20:36;-0.90;99.90
30069;DHT22;16894;49.456;10.644;2023-02-15T04:23:20;-0.90;99.90
30069;DHT22;16894;49.456;10.644;2023-02-15T04:26:04;-1.00;99.90
30069;DHT22;16894;49.456;10.644;2023-02-15T04:28:30;-0.90;99.90
30069;DHT22;16894;49.456;10.644;2023-02-15T04:30:56;-0.90;99.90
30069;DHT22;16894;49.456;10.644;2023-02-15T04:33:22;-0.90;99.90
30069;DHT22;16894;49.456;10.644;2023-02-15T04:35:47;-0.90;99.90
30069;DHT22;16894;49.456;10.644;2023-02-15T04:38:13;-0.90;99.90
30069;DHT22;16894;49.456;10.644;2023-02-15T04:40:39;-0.90;99.90
30069;DHT22;16894;49.456;10.644;2023-02-15T04:43:04;-0.90;99.90
30069;DHT22;16894;49.456;10.644;2023-02-15T04:45:30;-1.00;99.90
30069;DHT22;16894;49.456;10.644;2023-02-15T04:47:56;-1.00;99.90
30069;DHT22;16894;49.456;10.644;2023-02-15T04:50:21;-1.00;99.90
30069;DHT22;16894;49.456;10.644;2023-02-15T04:52:47;-1.00;99.90
30069;DHT22;16894;49.456;10.644;2023-02-15T04:55:13;-1.00;99.90
30069;DHT22;16894;49.456;10.644;2023-02-15T04:57:39;-1.00;99.90
30069;DHT22;16894;49.456;10.644;2023-02-15T05:00:05;-1.00;99.90
30069;DHT22;16894;49.456;10.644;2023-02-15T05:02:31;-1.00;99.90
30069;DHT22;16894;49.456;10.644;2023-02-15T05:04:57;-1.00;99.90
30069;DHT22;16894;49.456;10.644;2023-02-15T05:07:22;-1.00;99.90
30069;DHT22;16894;49.456;10.644;2023-02-15T05:09:48;-1.00;99.90
30069;DHT22;16894;49.456;10.644;2023-02-15T05:12:14;-1.10;99.90
30069;DHT22;16894;49.456;10.644;2023-02-15T05:14:39;-1.20;99.90
30069;DHT22;16894;49.456;10.644;2023-02-15T05:17:05;-1.00;99.90
30069;DHT22;16894;49.456;10.644;2023-02-15T05:19:31;-1.00;99.90
30069;DHT22;16894;49.456;10.644;2023-02-15T05:21:57;-1.00;99.90
30069;DHT22;16894;49.456;10.644;2023-02-15T05:24:22;-1.00;99.90
30069;DHT22;16894;49.456;10.644;2023-02-15T05:27:09;-1.00;99.90
30069;DHT22;16894;49.456;10.644;2023-02-15T05:29:54;-1.00;99.90
30069;DHT22;16894;49.456;10.644;2023-02-15T05:32:19;-1.10;99.90
30069;DHT22;16894;49.456;10.644;2023-02-15T05:34:45;-1.00;99.90
30069;DHT22;16894;49.456;10.644;2023-02-15T05:37:11;-1.10;99.90
30069;DHT22;16894;49.456;10.644;2023-02-15T05:39:36;-1.00;99.90
30069;DHT22;16894;49.456;10.644;2023-02-15T05:42:02;-1.00;99.90
30069;DHT22;16894;49.456;10.644;2023-02-15T05:44:28;-1.00;99.90
30069;DHT22;16894;49.456;10.644;2023-02-15T05:46:53;-1.00;99.90
30069;DHT22;16894;49.456;10.644;2023-02-15T05:49:19;-1.10;99.90
30069;DHT22;16894;49.456;10.644;2023-02-15T05:51:44;-1.10;99.90
30069;DHT22;16894;49.456;10.644;2023-02-15T05:54:10;-1.00;99.90
30069;DHT22;16894;49.456;10.644;2023-02-15T05:56:36;-1.00;99.90
30069;DHT22;16894;49.456;10.644;2023-02-15T05:59:01;-1.00;99.90
30069;DHT22;16894;49.456;10.644;2023-02-15T06:01:27;-1.10;99.90
30069;DHT22;16894;49.456;10.644;2023-02-15T06:03:52;-1.10;99.90
30069;DHT22;16894;49.456;10.644;2023-02-15T06:06:19;-1.10;99.90
30069;DHT22;16894;49.456;10.644;2023-02-15T06:08:45;-1.10;99.90
30069;DHT22;16894;49.456;10.644;2023-02-15T06:11:10;-1.10;99.90
30069;DHT22;16894;49.456;10.644;2023-02-15T06:13:36;-1.10;99.90
30069;DHT22;16894;49.456;10.644;2023-02-15T06:16:02;-1.00;99.90
30069;DHT22;16894;49.456;10.644;2023-02-15T06:18:27;-1.10;99.90
30069;DHT22;16894;49.456;10.644;2023-02-15T06:20:53;-1.10;99.90
30069;DHT22;16894;49.456;10.644;2023-02-15T06:23:19;-1.10;99.90
30069;DHT22;16894;49.456;10.644;2023-02-15T06:25:45;-1.30;99.90
30069;DHT22;16894;49.456;10.644;2023-02-15T06:28:11;-1.30;99.90
30069;DHT22;16894;49.456;10.644;2023-02-15T06:30:37;-1.30;99.90
30069;DHT22;16894;49.456;10.644;2023-02-15T06:33:02;-1.30;99.90
30069;DHT22;16894;49.456;10.644;2023-02-15T06:35:28;-1.30;99.90
30069;DHT22;16894;49.456;10.644;2023-02-15T06:37:54;-1.30;99.90
30069;DHT22;16894;49.456;10.644;2023-02-15T06:40:19;-1.20;99.90
30069;DHT22;16894;49.456;10.644;2023-02-15T06:42:45;-1.30;99.90
30069;DHT22;16894;49.456;10.644;2023-02-15T06:45:11;-1.20;99.90
30069;DHT22;16894;49.456;10.644;2023-02-15T06:47:37;-1.30;99.90
30069;DHT22;16894;49.456;10.644;2023-02-15T06:50:06;-1.20;99.90
30069;DHT22;16894;49.456;10.644;2023-02-15T06:52:32;-1.20;99.90
30069;DHT22;16894;49.456;10.644;2023-02-15T06:54:58;-1.20;99.90
30069;DHT22;16894;49.456;10.644;2023-02-15T06:57:24;-1.20;99.90
30069;DHT22;16894;49.456;10.644;2023-02-15T06:59:50;-1.20;99.90
30069;DHT22;16894;49.456;10.644;2023-02-15T07:02:15;-1.20;99.90
30069;DHT22;16894;49.456;10.644;2023-02-15T07:04:41;-1.10;99.90
30069;DHT22;16894;49.456;10.644;2023-02-15T07:07:12;-1.00;99.90
30069;DHT22;16894;49.456;10.644;2023-02-15T07:09:38;-0.90;99.90
30069;DHT22;16894;49.456;10.644;2023-02-15T07:12:04;-0.90;99.90
30069;DHT22;16894;49.456;10.644;2023-02-15T07:14:49;-0.90;99.90
30069;DHT22;16894;49.456;10.644;2023-02-15T07:17:14;-0.90;99.90
30069;DHT22;16894;49.456;10.644;2023-02-15T07:19:40;-0.90;99.90
30069;DHT22;16894;49.456;10.644;2023-02-15T07:22:06;-0.90;99.90
30069;DHT22;16894;49.456;10.644;2023-02-15T07:24:32;-0.90;99.90
30069;DHT22;16894;49.456;10.644;2023-02-15T07:26:57;-0.80;99.90
30069;DHT22;16894;49.456;10.644;2023-02-15T07:29:23;-0.80;99.90
30069;DHT22;16894;49.456;10.644;2023-02-15T07:31:49;-0.80;99.90
30069;DHT22;16894;49.456;10.644;2023-02-15T07:34:15;-0.90;99.90
30069;DHT22;16894;49.456;10.644;2023-02-15T07:36:41;-0.90;99.90
30069;DHT22;16894;49.456;10.644;2023-02-15T07:39:07;-0.80;99.90
30069;DHT22;16894;49.456;10.644;2023-02-15T07:41:32;-0.70;99.90
30069;DHT22;16894;49.456;10.644;2023-02-15T07:43:58;-0.70;99.90
30069;DHT22;16894;49.456;10.644;2023-02-15T07:46:23;-0.70;99.90
30069;DHT22;16894;49.456;10.644;2023-02-15T07:48:49;-0.70;99.90
30069;DHT22;16894;49.456;10.644;2023-02-15T07:51:15;-0.70;99.90
30069;DHT22;16894;49.456;10.644;2023-02-15T07:53:41;-0.70;99.90
30069;DHT22;16894;49.456;10.644;2023-02-15T07:56:10;-0.70;99.90
30069;DHT22;16894;49.456;10.644;2023-02-15T07:58:36;-0.70;99.90
30069;DHT22;16894;49.456;10.644;2023-02-15T08:01:34;-0.70;99.90
30069;DHT22;16894;49.456;10.644;2023-02-15T08:04:01;-0.70;99.90
30069;DHT22;16894;49.456;10.644;2023-02-15T08:06:29;-0.70;99.90
30069;DHT22;16894;49.456;10.644;2023-02-15T08:08:55;-0.70;99.90
30069;DHT22;16894;49.456;10.644;2023-02-15T08:14:22;-0.60;99.90
30069;DHT22;16894;49.456;10.644;2023-02-15T08:16:50;-0.60;99.90
30069;DHT22;16894;49.456;10.644;2023-02-15T08:19:24;-0.60;99.90
30069;DHT22;16894;49.456;10.644;2023-02-15T08:21:53;-0.50;99.90
30069;DHT22;16894;49.456;10.644;2023-02-15T08:24:20;-0.50;99.90
30069;DHT22;16894;49.456;10.644;2023-02-15T08:26:48;-0.50;99.90
30069;DHT22;16894;49.456;10.644;2023-02-15T08:29:25;-0.40;99.90
30069;DHT22;16894;49.456;10.644;2023-02-15T08:31:58;-0.30;99.90
30069;DHT22;16894;49.456;10.644;2023-02-15T08:34:24;-0.20;99.90
30069;DHT22;16894;49.456;10.644;2023-02-15T08:36:50;-0.20;99.90
30069;DHT22;16894;49.456;10.644;2023-02-15T08:39:16;-0.10;99.90
30069;DHT22;16894;49.456;10.644;2023-02-15T08:41:43;0.00;99.90
30069;DHT22;16894;49.456;10.644;2023-02-15T08:44:10;-0.10;99.90
30069;DHT22;16894;49.456;10.644;2023-02-15T08:46:40;0.10;99.90
30069;DHT22;16894;49.456;10.644;2023-02-15T08:49:07;0.00;99.90
30069;DHT22;16894;49.456;10.644;2023-02-15T08:51:34;0.10;99.90
30069;DHT22;16894;49.456;10.644;2023-02-15T08:54:03;0.10;99.90
30069;DHT22;16894;49.456;10.644;2023-02-15T08:56:34;0.10;99.90
30069;DHT22;16894;49.456;10.644;2023-02-15T08:59:01;0.10;99.90
30069;DHT22;16894;49.456;10.644;2023-02-15T09:01:29;0.10;99.90
30069;DHT22;16894;49.456;10.644;2023-02-15T09:04:01;0.10;99.90
30069;DHT22;16894;49.456;10.644;2023-02-15T09:06:27;0.10;99.90
30069;DHT22;16894;49.456;10.644;2023-02-15T09:08:53;0.20;99.90
30069;DHT22;16894;49.456;10.644;2023-02-15T09:11:22;0.30;99.90
30069;DHT22;16894;49.456;10.644;2023-02-15T09:14:00;0.30;99.90
30069;DHT22;16894;49.456;10.644;2023-02-15T09:16:28;0.30;99.90
30069;DHT22;16894;49.456;10.644;2023-02-15T09:18:54;0.50;99.90
30069;DHT22;16894;49.456;10.644;2023-02-15T09:21:23;0.60;99.90
30069;DHT22;16894;49.456;10.644;2023-02-15T09:23:51;0.70;99.90
30069;DHT22;16894;49.456;10.644;2023-02-15T09:26:21;0.70;99.90
30069;DHT22;16894;49.456;10.644;2023-02-15T09:28:47;0.80;99.90
30069;DHT22;16894;49.456;10.644;2023-02-15T09:31:20;0.80;99.90
30069;DHT22;16894;49.456;10.644;2023-02-15T09:33:47;0.70;99.90
30069;DHT22;16894;49.456;10.644;2023-02-15T09:36:16;0.80;99.90
30069;DHT22;16894;49.456;10.644;2023-02-15T09:38:43;0.80;99.90
30069;DHT22;16894;49.456;10.644;2023-02-15T09:49:30;1.10;99.90
30069;DHT22;16894;49.456;10.644;2023-02-15T10:00:02;1.10;99.90
30069;DHT22;16894;49.456;10.644;2023-02-15T10:02:53;1.20;99.90
30069;DHT22;16894;49.456;10.644;2023-02-15T10:11:55;1.40;99.90
30069;DHT22;16894;49.456;10.644;2023-02-15T10:17:13;1.50;99.90
30069;DHT22;16894;49.456;10.644;2023-02-15T10:20:13;1.60;99.90
30069;DHT22;16894;49.456;10.644;2023-02-15T10:25:48;1.50;99.90
30069;DHT22;16894;49.456;10.644;2023-02-15T10:28:18;1.60;99.90
30069;DHT22;16894;49.456;10.644;2023-02-15T10:30:48;1.60;99.90
30069;DHT22;16894;49.456;10.644;2023-02-15T10:41:31;1.60;99.90
30069;DHT22;16894;49.456;10.644;2023-02-15T10:44:27;1.60;99.90
30069;DHT22;16894;49.456;10.644;2023-02-15T10:47:37;1.50;99.90
30069;DHT22;16894;49.456;10.644;2023-02-15T10:50:12;1.50;99.90
30069;DHT22;16894;49.456;10.644;2023-02-15T10:58:41;1.80;99.90
30069;DHT22;16894;49.456;10.644;2023-02-15T11:01:18;1.80;99.90
30069;DHT22;16894;49.456;10.644;2023-02-15T11:03:53;1.90;99.90
30069;DHT22;16894;49.456;10.644;2023-02-15T11:06:27;1.90;99.90
30069;DHT22;16894;49.456;10.644;2023-02-15T11:09:01;1.90;99.90
30069;DHT22;16894;49.456;10.644;2023-02-15T11:11:38;1.80;99.90
30069;DHT22;16894;49.456;10.644;2023-02-15T11:14:23;1.80;99.90
30069;DHT22;16894;49.456;10.644;2023-02-15T11:16:57;2.00;99.90
30069;DHT22;16894;49.456;10.644;2023-02-15T11:19:51;2.00;99.90
30069;DHT22;16894;49.456;10.644;2023-02-15T11:22:19;2.00;99.90
30069;DHT22;16894;49.456;10.644;2023-02-15T11:24:46;2.20;99.90
30069;DHT22;16894;49.456;10.644;2023-02-15T11:32:30;2.40;99.90
30069;DHT22;16894;49.456;10.644;2023-02-15T11:37:53;2.40;99.90
30069;DHT22;16894;49.456;10.644;2023-02-15T11:40:21;2.40;99.90
30069;DHT22;16894;49.456;10.644;2023-02-15T11:42:49;2.40;99.90
30069;DHT22;16894;49.456;10.644;2023-02-15T11:47:50;2.30;99.90
30069;DHT22;16894;49.456;10.644;2023-02-15T11:50:18;2.30;99.90
30069;DHT22;16894;49.456;10.644;2023-02-15T11:52:48;2.40;99.90
30069;DHT22;16894;49.456;10.644;2023-02-15T11:55:19;2.50;99.90
30069;DHT22;16894;49.456;10.644;2023-02-15T11:57:52;2.70;99.90
30069;DHT22;16894;49.456;10.644;2023-02-15T12:00:49;2.80;99.90
30069;DHT22;16894;49.456;10.644;2023-02-15T12:03:21;2.70;99.90
30069;DHT22;16894;49.456;10.644;2023-02-15T12:05:52;2.90;99.90
30069;DHT22;16894;49.456;10.644;2023-02-15T12:08:20;2.80;99.90
30069;DHT22;16894;49.456;10.644;2023-02-15T12:11:00;3.00;99.90
30069;DHT22;16894;49.456;10.644;2023-02-15T12:13:28;3.10;99.90
30069;DHT22;16894;49.456;10.644;2023-02-15T12:15:56;3.10;99.90
30069;DHT22;16894;49.456;10.644;2023-02-15T12:18:38;3.10;99.90
30069;DHT22;16894;49.456;10.644;2023-02-15T12:21:13;3.30;99.90
30069;DHT22;16894;49.456;10.644;2023-02-15T12:23:47;3.30;99.90
30069;DHT22;16894;49.456;10.644;2023-02-15T12:26:14;3.20;99.90
30069;DHT22;16894;49.456;10.644;2023-02-15T12:28:44;3.40;99.90
30069;DHT22;16894;49.456;10.644;2023-02-15T12:31:40;3.50;99.90
30069;DHT22;16894;49.456;10.644;2023-02-15T12:34:13;3.80;99.90
30069;DHT22;16894;49.456;10.644;2023-02-15T12:36:46;3.80;99.90
30069;DHT22;16894;49.456;10.644;2023-02-15T12:39:22;3.60;99.90
30069;DHT22;16894;49.456;10.644;2023-02-15T12:44:22;3.50;99.90
30069;DHT22;16894;49.456;10.644;2023-02-15T12:47:20;3.30;99.90
30069;DHT22;16894;49.456;10.644;2023-02-15T12:50:13;3.20;99.90
30069;DHT22;16894;49.456;10.644;2023-02-15T12:52:47;3.00;99.90
30069;DHT22;16894;49.456;10.644;2023-02-15T12:55:24;3.00;99.90
30069;DHT22;16894;49.456;10.644;2023-02-15T13:00:35;3.10;99.90
30069;DHT22;16894;49.456;10.644;2023-02-15T13:03:01;3.30;99.90
30069;DHT22;16894;49.456;10.644;2023-02-15T13:05:32;3.50;99.90
30069;DHT22;16894;49.456;10.644;2023-02-15T13:08:26;3.50;99.90
30069;DHT22;16894;49.456;10.644;2023-02-15T13:11:08;3.60;99.90
30069;DHT22;16894;49.456;10.644;2023-02-15T13:14:01;3.80;99.90
30069;DHT22;16894;49.456;10.644;2023-02-15T13:16:33;4.00;99.90
30069;DHT22;16894;49.456;10.644;2023-02-15T13:19:06;4.30;99.90
30069;DHT22;16894;49.456;10.644;2023-02-15T13:21:37;4.30;99.90
30069;DHT22;16894;49.456;10.644;2023-02-15T13:24:21;4.30;99.90
30069;DHT22;16894;49.456;10.644;2023-02-15T13:26:48;4.20;99.90
30069;DHT22;16894;49.456;10.644;2023-02-15T13:29:22;4.00;99.90
30069;DHT22;16894;49.456;10.644;2023-02-15T13:31:50;3.80;99.90
30069;DHT22;16894;49.456;10.644;2023-02-15T13:34:18;3.70;99.90
30069;DHT22;16894;49.456;10.644;2023-02-15T13:37:03;3.60;99.90
30069;DHT22;16894;49.456;10.644;2023-02-15T13:39:44;3.60;99.90
30069;DHT22;16894;49.456;10.644;2023-02-15T13:47:50;4.00;99.90
30069;DHT22;16894;49.456;10.644;2023-02-15T13:53:18;4.20;99.90
30069;DHT22;16894;49.456;10.644;2023-02-15T13:55:57;4.10;99.90
30069;DHT22;16894;49.456;10.644;2023-02-15T14:01:19;4.10;99.90
30069;DHT22;16894;49.456;10.644;2023-02-15T14:04:13;4.40;99.90
30069;DHT22;16894;49.456;10.644;2023-02-15T14:20:52;4.60;99.90
30069;DHT22;16894;49.456;10.644;2023-02-15T14:31:44;4.20;99.90
30069;DHT22;16894;49.456;10.644;2023-02-15T14:36:51;4.10;99.90
30069;DHT22;16894;49.456;10.644;2023-02-15T14:39:27;4.20;99.90
30069;DHT22;16894;49.456;10.644;2023-02-15T14:44:53;4.10;99.90
30069;DHT22;16894;49.456;10.644;2023-02-15T14:47:26;3.90;99.90
30069;DHT22;16894;49.456;10.644;2023-02-15T14:49:54;3.90;99.90
30069;DHT22;16894;49.456;10.644;2023-02-15T14:52:20;4.00;99.90
30069;DHT22;16894;49.456;10.644;2023-02-15T14:59:40;3.70;99.90
30069;DHT22;16894;49.456;10.644;2023-02-15T15:07:58;3.50;99.90
30069;DHT22;16894;49.456;10.644;2023-02-15T15:12:55;3.30;99.90
30069;DHT22;16894;49.456;10.644;2023-02-15T15:17:55;3.30;99.90
30069;DHT22;16894;49.456;10.644;2023-02-15T15:20:46;3.20;99.90
30069;DHT22;16894;49.456;10.644;2023-02-15T15:25:50;3.20;99.90
30069;DHT22;16894;49.456;10.644;2023-02-15T15:37:09;3.10;99.90
30069;DHT22;16894;49.456;10.644;2023-02-15T15:48:38;3.10;99.90
30069;DHT22;16894;49.456;10.644;2023-02-15T15:51:27;3.00;99.90
30069;DHT22;16894;49.456;10.644;2023-02-15T15:53:55;3.00;99.90
30069;DHT22;16894;49.456;10.644;2023-02-15T15:56:54;3.00;99.90
30069;DHT22;16894;49.456;10.644;2023-02-15T15:59:26;2.90;99.90
30069;DHT22;16894;49.456;10.644;2023-02-15T16:01:53;2.80;99.90
30069;DHT22;16894;49.456;10.644;2023-02-15T16:04:30;2.90;99.90
30069;DHT22;16894;49.456;10.644;2023-02-15T16:06:57;2.80;99.90
30069;DHT22;16894;49.456;10.644;2023-02-15T16:09:25;2.70;99.90
30069;DHT22;16894;49.456;10.644;2023-02-15T16:11:54;2.70;99.90
30069;DHT22;16894;49.456;10.644;2023-02-15T16:14:35;2.60;99.90
30069;DHT22;16894;49.456;10.644;2023-02-15T16:17:04;2.50;99.90
30069;DHT22;16894;49.456;10.644;2023-02-15T16:19:34;2.40;99.90
30069;DHT22;16894;49.456;10.644;2023-02-15T16:22:03;2.30;99.90
30069;DHT22;16894;49.456;10.644;2023-02-15T16:29:38;2.20;99.90
30069;DHT22;16894;49.456;10.644;2023-02-15T16:32:27;2.10;99.90
30069;DHT22;16894;49.456;10.644;2023-02-15T16:35:01;2.10;99.90
30069;DHT22;16894;49.456;10.644;2023-02-15T16:37:32;2.00;99.90
30069;DHT22;16894;49.456;10.644;2023-02-15T16:39:58;1.90;99.90
30069;DHT22;16894;49.456;10.644;2023-02-15T16:42:24;1.80;99.90
30069;DHT22;16894;49.456;10.644;2023-02-15T16:47:25;1.50;99.90
30069;DHT22;16894;49.456;10.644;2023-02-15T16:49:55;1.50;99.90
30069;DHT22;16894;49.456;10.644;2023-02-15T16:52:24;1.40;99.90
30069;DHT22;16894;49.456;10.644;2023-02-15T16:54:54;1.30;99.90
30069;DHT22;16894;49.456;10.644;2023-02-15T16:57:24;1.20;99.90
30069;DHT22;16894;49.456;10.644;2023-02-15T16:59:53;1.10;99.90
30069;DHT22;16894;49.456;10.644;2023-02-15T17:02:25;1.00;99.90
30069;DHT22;16894;49.456;10.644;2023-02-15T17:05:16;0.90;99.90
30069;DHT22;16894;49.456;10.644;2023-02-15T17:10:31;0.70;99.90
30069;DHT22;16894;49.456;10.644;2023-02-15T17:13:10;0.60;99.90
30069;DHT22;16894;49.456;10.644;2023-02-15T17:15:40;0.60;99.90
30069;DHT22;16894;49.456;10.644;2023-02-15T17:18:17;0.60;99.90
30069;DHT22;16894;49.456;10.644;2023-02-15T17:20:45;0.60;99.90
30069;DHT22;16894;49.456;10.644;2023-02-15T17:23:32;0.50;99.90
30069;DHT22;16894;49.456;10.644;2023-02-15T17:26:01;0.40;99.90
30069;DHT22;16894;49.456;10.644;2023-02-15T17:28:31;0.30;99.90
30069;DHT22;16894;49.456;10.644;2023-02-15T17:30:58;0.20;99.90
30069;DHT22;16894;49.456;10.644;2023-02-15T17:38:28;0.10;99.90
30069;DHT22;16894;49.456;10.644;2023-02-15T17:40:53;0.10;99.90
30069;DHT22;16894;49.456;10.644;2023-02-15T17:43:19;0.00;99.90
30069;DHT22;16894;49.456;10.644;2023-02-15T17:45:48;0.00;99.90
30069;DHT22;16894;49.456;10.644;2023-02-15T17:48:30;-0.10;99.90
30069;DHT22;16894;49.456;10.644;2023-02-15T17:51:04;-0.10;99.90
30069;DHT22;16894;49.456;10.644;2023-02-15T17:53:30;-0.20;99.90
30069;DHT22;16894;49.456;10.644;2023-02-15T17:55:56;-0.20;99.90
30069;DHT22;16894;49.456;10.644;2023-02-15T17:58:22;-0.20;99.90
30069;DHT22;16894;49.456;10.644;2023-02-15T18:00:55;-0.20;99.90
30069;DHT22;16894;49.456;10.644;2023-02-15T18:03:48;-0.10;99.90
30069;DHT22;16894;49.456;10.644;2023-02-15T18:06:34;-0.20;99.90
30069;DHT22;16894;49.456;10.644;2023-02-15T18:09:20;-0.20;99.90
30069;DHT22;16894;49.456;10.644;2023-02-15T18:12:26;-0.20;99.90
30069;DHT22;16894;49.456;10.644;2023-02-15T18:14:53;-0.30;99.90
30069;DHT22;16894;49.456;10.644;2023-02-15T18:17:23;-0.30;99.90
30069;DHT22;16894;49.456;10.644;2023-02-15T18:19:51;-0.40;99.90
30069;DHT22;16894;49.456;10.644;2023-02-15T18:22:19;-0.50;99.90
30069;DHT22;16894;49.456;10.644;2023-02-15T18:24:46;-0.50;99.90
30069;DHT22;16894;49.456;10.644;2023-02-15T18:27:13;-0.50;99.90
30069;DHT22;16894;49.456;10.644;2023-02-15T18:29:39;-0.60;99.90
30069;DHT22;16894;49.456;10.644;2023-02-15T18:32:27;-0.60;99.90
30069;DHT22;16894;49.456;10.644;2023-02-15T18:34:57;-0.60;99.90
30069;DHT22;16894;49.456;10.644;2023-02-15T18:37:25;-0.70;99.90
30069;DHT22;16894;49.456;10.644;2023-02-15T18:39:52;-0.70;99.90
30069;DHT22;16894;49.456;10.644;2023-02-15T18:42:29;-0.70;99.90